createdAt,value
2018-02-15T00:02:26.494Z,58.60
2018-02-15T00:04:53.478Z,58.60
2018-02-15T00:07:20.467Z,58.60
2018-02-15T00:09:47.467Z,58.60
2018-02-15T00:12:15.198Z,58.70
2018-02-15T00:14:42.179Z,58.50
2018-02-15T00:17:09.153Z,58.60
2018-02-15T00:19:36.140Z,58.50
2018-02-15T00:22:03.125Z,58.50
2018-02-15T00:24:30.877Z,58.50
2018-02-15T00:26:57.862Z,58.50
2018-02-15T00:29:26.350Z,58.50
2018-02-15T00:31:53.343Z,58.50
2018-02-15T00:34:20.327Z,58.50
2018-02-15T00:36:48.070Z,58.00
2018-02-15T00:39:15.050Z,58.50
2018-02-15T00:41:42.042Z,58.50
2018-02-15T00:44:09.022Z,58.50
2018-02-15T00:46:36.019Z,58.50
2018-02-15T00:49:03.003Z,58.50
2018-02-15T00:51:29.985Z,58.40
2018-02-15T00:53:56.975Z,58.40
2018-02-15T00:56:23.948Z,58.40
2018-02-15T00:58:50.935Z,58.40
2018-02-15T01:01:17.916Z,58.50
2018-02-15T01:03:44.887Z,58.50
2018-02-15T01:06:11.883Z,58.50
2018-02-15T01:08:39.630Z,58.40
2018-02-15T01:11:06.615Z,58.40
2018-02-15T01:13:33.589Z,58.30
2018-02-15T01:16:00.566Z,58.40
2018-02-15T01:18:28.319Z,58.40
2018-02-15T01:20:55.294Z,58.40
2018-02-15T01:23:22.273Z,58.30
2018-02-15T01:25:49.255Z,58.30
2018-02-15T01:28:16.243Z,58.40
2018-02-15T01:30:43.226Z,58.30
2018-02-15T01:33:10.979Z,58.30
2018-02-15T01:35:37.967Z,58.20
2018-02-15T01:38:04.954Z,58.30
2018-02-15T01:40:32.707Z,58.30
2018-02-15T01:42:59.686Z,58.30
2018-02-15T01:45:26.673Z,58.30
2018-02-15T01:47:54.423Z,58.30
2018-02-15T01:50:21.414Z,58.30
2018-02-15T01:52:48.398Z,58.20
2018-02-15T01:55:15.379Z,58.20
2018-02-15T01:57:43.127Z,58.30
2018-02-15T02:00:10.110Z,58.20
2018-02-15T02:02:37.095Z,58.20
2018-02-15T02:05:04.083Z,58.20
2018-02-15T02:07:31.839Z,58.20
2018-02-15T02:09:58.830Z,58.20
2018-02-15T02:12:26.593Z,57.90
2018-02-15T02:14:53.590Z,58.20
2018-02-15T02:17:20.570Z,58.80
2018-02-15T02:19:48.326Z,58.20
2018-02-15T02:22:15.310Z,58.20
2018-02-15T02:24:42.298Z,58.20
2018-02-15T02:27:09.283Z,58.20
2018-02-15T02:29:36.336Z,58.20
2018-02-15T02:32:03.299Z,58.20
2018-02-15T02:34:30.296Z,58.20
2018-02-15T02:36:58.048Z,58.20
2018-02-15T02:39:25.036Z,58.20
2018-02-15T02:41:52.019Z,58.20
2018-02-15T02:44:19.775Z,58.20
2018-02-15T02:46:46.761Z,58.20
2018-02-15T02:49:13.750Z,58.10
2018-02-15T02:51:41.505Z,58.20
2018-02-15T02:54:08.499Z,58.20
2018-02-15T02:56:35.478Z,58.10
2018-02-15T02:59:03.234Z,58.10
2018-02-15T03:01:30.214Z,58.10
2018-02-15T03:03:57.210Z,58.00
2018-02-15T03:06:24.959Z,58.10
2018-02-15T03:08:51.931Z,58.00
2018-02-15T03:11:18.922Z,58.10
2018-02-15T03:13:45.907Z,58.10
2018-02-15T03:16:12.887Z,58.10
2018-02-15T03:18:39.870Z,57.90
2018-02-15T03:21:07.644Z,58.20
2018-02-15T03:23:34.626Z,58.00
2018-02-15T03:26:02.379Z,58.00
2018-02-15T03:28:29.358Z,58.00
2018-02-15T03:30:56.339Z,58.00
2018-02-15T03:33:23.320Z,57.80
2018-02-15T03:35:50.310Z,57.70
2018-02-15T03:38:18.065Z,57.70
2018-02-15T03:40:45.052Z,57.70
2018-02-15T03:43:12.046Z,57.70
2018-02-15T03:45:39.790Z,57.70
2018-02-15T03:48:06.804Z,57.70
2018-02-15T03:50:33.800Z,57.70
2018-02-15T03:53:00.784Z,57.70
2018-02-15T03:55:27.766Z,57.70
2018-02-15T03:57:55.511Z,57.70
2018-02-15T04:00:22.494Z,57.70
2018-02-15T04:02:49.470Z,57.70
2018-02-15T04:05:16.462Z,57.70
2018-02-15T04:07:43.426Z,57.70
2018-02-15T04:10:10.420Z,57.70
2018-02-15T04:12:37.398Z,57.70
2018-02-15T04:15:04.382Z,57.70
2018-02-15T04:17:32.126Z,58.00
2018-02-15T04:19:59.114Z,57.70
2018-02-15T04:22:26.098Z,57.70
2018-02-15T04:24:53.079Z,57.70
2018-02-15T04:27:20.071Z,57.70
2018-02-15T04:29:47.828Z,57.70
2018-02-15T04:32:14.809Z,57.70
2018-02-15T04:34:41.803Z,57.70
2018-02-15T04:37:09.558Z,57.70
2018-02-15T04:39:36.530Z,57.70
2018-02-15T04:42:03.526Z,57.70
2018-02-15T04:44:30.510Z,57.70
2018-02-15T04:46:58.250Z,57.70
2018-02-15T04:49:25.265Z,57.60
2018-02-15T04:51:53.015Z,57.60
2018-02-15T04:54:19.999Z,57.70
2018-02-15T04:56:46.984Z,57.70
2018-02-15T04:59:13.966Z,57.70
2018-02-15T05:01:41.720Z,57.70
2018-02-15T05:04:08.694Z,57.60
2018-02-15T05:06:35.682Z,57.70
2018-02-15T05:09:02.659Z,57.70
2018-02-15T05:11:29.669Z,57.60
2018-02-15T05:13:56.659Z,57.70
2018-02-15T05:16:23.663Z,57.70
2018-02-15T05:18:50.643Z,57.70
2018-02-15T05:21:17.638Z,57.60
2018-02-15T05:23:45.382Z,57.60
2018-02-15T05:26:12.371Z,57.60
2018-02-15T05:28:39.377Z,57.60
2018-02-15T05:31:06.350Z,57.60
2018-02-15T05:33:33.334Z,57.60
2018-02-15T05:36:00.324Z,57.60
2018-02-15T05:38:27.306Z,57.60
2018-02-15T05:40:54.347Z,57.70
2018-02-15T05:43:22.605Z,57.60
2018-02-15T05:45:49.619Z,57.60
2018-02-15T05:48:16.594Z,57.60
2018-02-15T05:50:43.598Z,57.60
2018-02-15T05:53:10.615Z,57.60
2018-02-15T05:55:37.629Z,57.60
2018-02-15T05:58:04.710Z,57.60
2018-02-15T06:00:31.753Z,57.60
2018-02-15T06:02:58.739Z,57.60
2018-02-15T06:05:25.715Z,57.60
2018-02-15T06:07:52.702Z,58.60
2018-02-15T06:10:19.717Z,58.00
2018-02-15T06:12:46.890Z,57.70
2018-02-15T06:15:13.874Z,57.70
2018-02-15T06:17:40.895Z,58.10
2018-02-15T06:20:07.878Z,58.10
2018-02-15T06:22:34.861Z,57.70
2018-02-15T06:25:01.838Z,57.60
2018-02-15T06:27:28.810Z,57.60
2018-02-15T06:29:55.795Z,57.70
2018-02-15T06:32:22.807Z,57.70
2018-02-15T06:34:49.790Z,57.70
2018-02-15T06:37:16.775Z,58.40
2018-02-15T06:39:43.875Z,57.90
2018-02-15T06:42:10.858Z,58.00
2018-02-15T06:44:38.002Z,58.10
2018-02-15T06:47:04.986Z,58.10
2018-02-15T06:49:31.977Z,58.10
2018-02-15T06:51:58.954Z,58.10
2018-02-15T06:54:26.013Z,58.20
2018-02-15T06:56:53.929Z,58.20
2018-02-15T06:59:20.903Z,58.10
2018-02-15T07:01:47.897Z,58.20
2018-02-15T07:04:14.890Z,58.20
2018-02-15T07:06:41.871Z,58.30
2018-02-15T07:09:08.927Z,58.30
2018-02-15T07:11:35.915Z,58.30
2018-02-15T07:14:03.657Z,58.30
2018-02-15T07:16:30.637Z,58.30
2018-02-15T07:18:57.623Z,58.30
2018-02-15T07:21:24.602Z,58.30
2018-02-15T07:23:51.582Z,58.30
2018-02-15T07:26:19.430Z,58.30
2018-02-15T07:28:46.426Z,58.90
2018-02-15T07:31:14.201Z,58.30
2018-02-15T07:33:41.198Z,58.20
2018-02-15T07:36:08.966Z,58.30
2018-02-15T07:38:35.978Z,58.30
2018-02-15T07:41:03.724Z,58.30
2018-02-15T07:43:30.884Z,58.30
2018-02-15T07:45:57.859Z,58.30
2018-02-15T07:48:24.852Z,58.20
2018-02-15T07:50:51.844Z,58.30
2018-02-15T07:53:18.835Z,58.20
2018-02-15T07:55:46.582Z,58.20
2018-02-15T07:58:13.566Z,58.20
2018-02-15T08:00:40.551Z,58.30
2018-02-15T08:03:07.538Z,58.30
2018-02-15T08:05:35.282Z,58.30
2018-02-15T08:08:02.284Z,58.30
2018-02-15T08:10:29.280Z,58.30
2018-02-15T08:12:56.255Z,58.30
2018-02-15T08:15:24.189Z,58.30
2018-02-15T08:17:52.079Z,58.30
2018-02-15T08:20:19.059Z,58.20
2018-02-15T08:22:46.043Z,58.30
2018-02-15T08:25:13.066Z,58.30
2018-02-15T08:27:40.051Z,58.30
2018-02-15T08:30:07.035Z,58.30
2018-02-15T08:32:34.787Z,58.30
2018-02-15T08:35:01.787Z,58.30
2018-02-15T08:37:28.769Z,58.30
2018-02-15T08:39:56.513Z,58.30
2018-02-15T08:42:23.506Z,58.30
2018-02-15T08:44:50.489Z,58.30
2018-02-15T08:47:17.466Z,58.30
2018-02-15T08:49:44.469Z,58.30
2018-02-15T08:52:11.459Z,58.30
2018-02-15T08:54:38.445Z,58.30
2018-02-15T08:57:05.430Z,58.30
2018-02-15T08:59:32.422Z,58.30
2018-02-15T09:01:59.409Z,58.30
2018-02-15T09:04:27.171Z,58.30
2018-02-15T09:06:54.155Z,58.30
2018-02-15T09:09:21.147Z,58.30
2018-02-15T09:11:48.894Z,58.30
2018-02-15T09:14:15.875Z,58.30
2018-02-15T09:16:42.860Z,58.30
2018-02-15T09:19:09.844Z,58.30
2018-02-15T09:21:37.590Z,58.30
2018-02-15T09:24:04.567Z,58.30
2018-02-15T09:26:31.558Z,58.30
2018-02-15T09:28:58.544Z,58.20
2018-02-15T09:31:25.527Z,58.30
2018-02-15T09:33:52.510Z,58.30
2018-02-15T09:36:20.261Z,58.30
2018-02-15T09:38:47.240Z,58.30
2018-02-15T09:41:14.237Z,58.30
2018-02-15T09:43:41.215Z,58.30
2018-02-15T09:46:08.205Z,58.20
2018-02-15T09:48:35.192Z,58.30
2018-02-15T09:51:02.181Z,58.30
2018-02-15T09:53:29.166Z,58.40
2018-02-15T09:55:56.154Z,58.30
2018-02-15T09:58:23.139Z,58.30
2018-02-15T10:00:50.130Z,58.30
2018-02-15T10:03:17.869Z,58.50
2018-02-15T10:05:44.867Z,58.30
2018-02-15T10:08:11.850Z,58.40
2018-02-15T10:10:38.838Z,58.40
2018-02-15T10:13:05.816Z,58.50
2018-02-15T10:15:33.567Z,58.30
2018-02-15T10:18:00.548Z,58.30
2018-02-15T10:20:27.526Z,58.40
2018-02-15T10:22:54.503Z,58.40
2018-02-15T10:25:21.492Z,58.30
2018-02-15T10:27:49.243Z,58.50
2018-02-15T10:30:16.218Z,58.40
2018-02-15T10:32:43.200Z,58.30
2018-02-15T10:35:10.187Z,58.40
2018-02-15T10:37:37.934Z,58.40
2018-02-15T10:40:04.923Z,58.40
2018-02-15T10:42:31.907Z,58.40
2018-02-15T10:44:58.898Z,58.30
2018-02-15T10:47:25.875Z,58.30
2018-02-15T10:49:53.632Z,58.40
2018-02-15T10:52:21.398Z,58.40
2018-02-15T10:54:48.390Z,58.30
2018-02-15T10:57:15.371Z,58.30
2018-02-15T10:59:42.350Z,58.30
2018-02-15T11:02:15.007Z,58.30
2018-02-15T11:04:47.722Z,58.30
2018-02-15T11:07:14.775Z,58.30
2018-02-15T11:09:41.760Z,58.30
2018-02-15T11:12:08.753Z,58.30
2018-02-15T11:14:35.742Z,58.40
2018-02-15T11:17:02.732Z,58.30
2018-02-15T11:19:29.719Z,58.40
2018-02-15T11:21:57.483Z,58.30
2018-02-15T11:24:24.466Z,58.30
2018-02-15T11:26:51.458Z,58.30
2018-02-15T11:29:19.208Z,58.40
2018-02-15T11:31:46.199Z,58.30
2018-02-15T11:34:13.184Z,58.30
2018-02-15T11:36:40.155Z,58.30
2018-02-15T11:39:07.898Z,58.40
2018-02-15T11:41:34.974Z,58.40
2018-02-15T11:44:01.953Z,58.40
2018-02-15T11:46:28.942Z,58.30
2018-02-15T11:48:55.971Z,58.30
2018-02-15T11:51:22.984Z,58.40
2018-02-15T11:53:49.938Z,58.40
2018-02-15T11:56:16.922Z,58.40
2018-02-15T11:58:43.898Z,58.30
2018-02-15T12:01:10.875Z,58.40
2018-02-15T12:03:37.855Z,58.40
2018-02-15T12:06:05.605Z,58.40
2018-02-15T12:08:32.583Z,58.40
2018-02-15T12:10:59.566Z,58.40
2018-02-15T12:13:26.566Z,58.40
2018-02-15T12:15:54.322Z,58.40
2018-02-15T12:18:21.318Z,58.40
2018-02-15T12:20:48.298Z,58.50
2018-02-15T12:23:16.055Z,58.50
2018-02-15T12:25:43.041Z,58.40
2018-02-15T12:28:10.014Z,58.40
2018-02-15T12:30:36.999Z,58.40
2018-02-15T12:33:04.766Z,58.40
2018-02-15T12:35:31.747Z,58.40
2018-02-15T12:37:58.723Z,58.40
2018-02-15T12:40:25.708Z,58.30
2018-02-15T12:42:53.455Z,58.30
2018-02-15T12:45:20.444Z,58.30
2018-02-15T12:47:47.418Z,58.30
2018-02-15T12:50:14.399Z,58.30
2018-02-15T12:52:41.383Z,58.30
2018-02-15T12:55:08.363Z,58.30
2018-02-15T12:57:35.342Z,58.40
2018-02-15T13:00:02.327Z,58.30
2018-02-15T13:02:29.306Z,58.40
2018-02-15T13:04:56.295Z,58.20
2018-02-15T13:07:24.042Z,58.40
2018-02-15T13:09:51.035Z,58.40
2018-02-15T13:12:23.943Z,58.30
2018-02-15T13:14:50.943Z,58.40
2018-02-15T13:17:17.923Z,58.30
2018-02-15T13:19:50.866Z,58.40
2018-02-15T13:22:23.806Z,58.40
2018-02-15T13:24:50.802Z,58.40
2018-02-15T13:27:18.554Z,58.40
2018-02-15T13:29:45.535Z,58.40
2018-02-15T13:32:12.512Z,58.40
2018-02-15T13:34:39.495Z,58.40
2018-02-15T13:37:06.478Z,58.50
2018-02-15T13:39:34.227Z,58.50
2018-02-15T13:42:01.210Z,58.50
2018-02-15T13:44:28.205Z,58.40
2018-02-15T13:46:55.186Z,58.50
2018-02-15T13:49:22.938Z,58.50
2018-02-15T13:51:49.922Z,58.50
2018-02-15T13:54:16.899Z,58.50
2018-02-15T13:56:43.882Z,58.50
2018-02-15T13:59:10.867Z,58.50
2018-02-15T14:01:37.843Z,58.50
2018-02-15T14:04:04.828Z,58.50
2018-02-15T14:06:31.815Z,58.50
2018-02-15T14:08:58.799Z,58.50
2018-02-15T14:11:25.775Z,58.50
2018-02-15T14:13:52.759Z,58.50
2018-02-15T14:16:19.734Z,58.50
2018-02-15T14:18:46.729Z,58.50
2018-02-15T14:21:13.723Z,58.50
2018-02-15T14:23:40.706Z,58.50
2018-02-15T14:26:07.698Z,58.50
2018-02-15T14:28:34.672Z,58.60
2018-02-15T14:31:01.651Z,58.60
2018-02-15T14:33:28.634Z,58.60
2018-02-15T14:35:55.614Z,58.50
2018-02-15T14:38:22.592Z,58.50
2018-02-15T14:40:49.574Z,58.60
2018-02-15T14:43:16.559Z,58.60
2018-02-15T14:45:43.869Z,58.60
2018-02-15T14:48:11.840Z,58.60
2018-02-15T14:50:38.966Z,58.60
2018-02-15T14:53:05.948Z,58.60
2018-02-15T14:55:32.967Z,58.60
2018-02-15T14:57:59.955Z,58.60
2018-02-15T15:00:28.458Z,58.60
2018-02-15T15:02:56.212Z,58.60
2018-02-15T15:05:23.204Z,58.60
2018-02-15T15:07:50.200Z,58.70
2018-02-15T15:10:17.176Z,58.80
2018-02-15T15:12:44.162Z,58.70
2018-02-15T15:15:11.146Z,58.60
2018-02-15T15:17:38.134Z,58.60
2018-02-15T15:20:05.115Z,58.50
2018-02-15T15:22:35.627Z,58.60
2018-02-15T15:25:02.610Z,58.90
2018-02-15T15:27:29.607Z,58.80
2018-02-15T15:29:56.590Z,58.70
2018-02-15T15:32:23.579Z,58.90
2018-02-15T15:34:52.099Z,59.80
2018-02-15T15:37:19.861Z,58.90
2018-02-15T15:39:46.838Z,58.90
2018-02-15T15:42:13.870Z,60.80
2018-02-15T15:44:40.851Z,59.80
2018-02-15T15:47:16.361Z,59.70
2018-02-15T15:49:43.343Z,59.50
2018-02-15T15:52:10.327Z,59.50
2018-02-15T15:54:37.310Z,59.50
2018-02-15T15:57:05.102Z,59.50
2018-02-15T15:59:38.471Z,59.50
2018-02-15T16:02:05.484Z,59.80
2018-02-15T16:04:32.467Z,59.80
2018-02-15T16:06:59.441Z,59.80
2018-02-15T16:09:26.437Z,59.70
2018-02-15T16:11:53.414Z,59.70
2018-02-15T16:14:21.162Z,59.70
2018-02-15T16:16:48.171Z,59.60
2018-02-15T16:19:15.151Z,59.70
2018-02-15T16:21:42.145Z,59.60
2018-02-15T16:24:10.095Z,59.60
2018-02-15T16:26:37.874Z,59.80
2018-02-15T16:29:04.863Z,60.00
2018-02-15T16:31:31.838Z,60.50
2018-02-15T16:33:58.826Z,60.20
2018-02-15T16:36:26.575Z,59.90
2018-02-15T16:38:54.330Z,59.90
2018-02-15T16:41:22.088Z,59.80
2018-02-15T16:43:49.070Z,59.80
2018-02-15T16:46:16.060Z,59.80
2018-02-15T16:48:43.038Z,60.50
2018-02-15T16:51:10.026Z,59.80
2018-02-15T16:53:37.827Z,60.00
2018-02-15T16:56:04.814Z,59.90
2018-02-15T16:58:33.734Z,61.00
2018-02-15T17:01:00.736Z,60.40
2018-02-15T17:03:27.739Z,60.30
2018-02-15T17:06:02.818Z,60.20
2018-02-15T17:08:29.816Z,60.10
2018-02-15T17:10:58.582Z,60.20
2018-02-15T17:13:25.739Z,60.00
2018-02-15T17:15:53.770Z,60.10
2018-02-15T17:18:20.829Z,60.20
2018-02-15T17:20:47.959Z,60.50
2018-02-15T17:23:15.778Z,60.70
2018-02-15T17:25:45.448Z,60.50
2018-02-15T17:28:16.839Z,60.60
2018-02-15T17:30:44.590Z,60.30
2018-02-15T17:33:11.585Z,60.70
2018-02-15T17:35:38.582Z,60.70
2018-02-15T17:38:05.579Z,60.80
2018-02-15T17:40:32.554Z,60.80
2018-02-15T17:43:01.522Z,60.70
2018-02-15T17:45:28.498Z,60.80
2018-02-15T17:47:55.489Z,60.80
2018-02-15T17:50:28.687Z,61.30
2018-02-15T17:52:56.453Z,61.00
2018-02-15T17:55:24.202Z,60.80
2018-02-15T17:57:51.955Z,60.80
2018-02-15T18:00:18.942Z,60.80
2018-02-15T18:03:00.528Z,61.30
2018-02-15T18:05:37.533Z,60.90
2018-02-15T18:08:05.426Z,60.90
2018-02-15T18:10:32.691Z,60.80
2018-02-15T18:13:06.883Z,60.80
2018-02-15T18:15:40.878Z,60.80
2018-02-15T18:18:08.627Z,60.80
2018-02-15T18:20:36.755Z,60.80
2018-02-15T18:23:03.782Z,60.80
2018-02-15T18:25:30.763Z,60.80
2018-02-15T18:27:57.777Z,60.80
2018-02-15T18:30:25.518Z,60.80
2018-02-15T18:33:04.824Z,61.70
2018-02-15T18:35:31.811Z,60.80
2018-02-15T18:37:58.790Z,60.80
2018-02-15T18:40:26.538Z,60.90
2018-02-15T18:42:54.290Z,60.80
2018-02-15T18:45:22.043Z,60.80
2018-02-15T18:48:08.098Z,60.80
2018-02-15T18:50:35.079Z,60.80
2018-02-15T18:53:02.825Z,60.90
2018-02-15T18:55:30.575Z,60.80
2018-02-15T18:57:58.330Z,60.80
2018-02-15T19:00:25.333Z,60.80
2018-02-15T19:02:53.114Z,60.80
2018-02-15T19:05:20.090Z,60.80
2018-02-15T19:07:47.074Z,60.80
2018-02-15T19:10:14.046Z,60.80
2018-02-15T19:12:41.028Z,60.80
2018-02-15T19:15:08.267Z,60.80
2018-02-15T19:17:35.252Z,60.80
2018-02-15T19:20:03.010Z,60.90
2018-02-15T19:22:29.990Z,60.90
2018-02-15T19:24:56.991Z,60.90
2018-02-15T19:27:23.974Z,60.80
2018-02-15T19:29:51.722Z,60.90
2018-02-15T19:32:18.702Z,60.90
2018-02-15T19:34:45.698Z,60.90
2018-02-15T19:37:12.670Z,61.00
2018-02-15T19:39:39.653Z,60.90
2018-02-15T19:42:07.789Z,60.50
2018-02-15T19:44:34.766Z,60.90
2018-02-15T19:47:02.674Z,61.00
2018-02-15T19:49:29.745Z,61.00
2018-02-15T19:51:56.834Z,61.00
2018-02-15T19:54:25.785Z,60.90
2018-02-15T19:56:52.957Z,60.90
2018-02-15T19:59:20.085Z,60.90
2018-02-15T20:01:47.139Z,60.90
2018-02-15T20:04:15.368Z,61.00
2018-02-15T20:06:42.535Z,61.60
2018-02-15T20:09:09.592Z,60.90
2018-02-15T20:11:38.934Z,60.90
2018-02-15T20:14:05.961Z,60.90
2018-02-15T20:16:33.175Z,61.00
2018-02-15T20:19:03.818Z,60.90
2018-02-15T20:21:30.903Z,61.10
2018-02-15T20:23:58.089Z,61.00
2018-02-15T20:26:31.730Z,61.00
2018-02-15T20:28:58.714Z,61.00
2018-02-15T20:31:25.695Z,61.80
2018-02-15T20:33:52.667Z,61.00
2018-02-15T20:36:19.650Z,61.10
2018-02-15T20:38:52.530Z,61.10
2018-02-15T20:41:19.513Z,61.10
2018-02-15T20:43:46.526Z,61.10
2018-02-15T20:46:13.509Z,61.10
2018-02-15T20:48:40.526Z,61.10
2018-02-15T20:51:13.297Z,61.10
2018-02-15T20:53:45.946Z,61.10
2018-02-15T20:56:19.578Z,61.10
2018-02-15T20:58:46.570Z,61.10
2018-02-15T21:01:13.558Z,61.20
2018-02-15T21:03:40.706Z,61.10
2018-02-15T21:06:16.174Z,61.10
2018-02-15T21:08:43.186Z,61.20
2018-02-15T21:11:10.272Z,61.20
2018-02-15T21:13:37.275Z,61.20
2018-02-15T21:16:04.262Z,61.20
2018-02-15T21:18:31.243Z,61.20
2018-02-15T21:20:58.224Z,61.10
2018-02-15T21:23:25.206Z,61.20
2018-02-15T21:25:52.186Z,61.10
2018-02-15T21:28:24.251Z,61.10
2018-02-15T21:30:51.733Z,61.10
2018-02-15T21:33:18.714Z,61.10
2018-02-15T21:35:45.710Z,61.10
2018-02-15T21:38:13.587Z,61.20
2018-02-15T21:40:40.570Z,61.20
2018-02-15T21:43:07.554Z,61.20
2018-02-15T21:45:34.536Z,61.20
2018-02-15T21:48:01.513Z,61.20
2018-02-15T21:50:28.518Z,61.10
2018-02-15T21:52:55.497Z,61.20
2018-02-15T21:55:22.486Z,61.10
2018-02-15T21:57:50.235Z,61.20
2018-02-15T22:00:17.222Z,61.10
2018-02-15T22:02:44.203Z,61.10
2018-02-15T22:05:11.185Z,61.10
2018-02-15T22:07:38.170Z,61.10
2018-02-15T22:10:05.921Z,61.10
2018-02-15T22:12:32.903Z,61.10
2018-02-15T22:14:59.881Z,62.00
2018-02-15T22:17:26.891Z,61.20
2018-02-15T22:19:53.875Z,61.20
2018-02-15T22:22:20.850Z,61.10
2018-02-15T22:24:47.829Z,61.20
2018-02-15T22:27:14.806Z,61.30
2018-02-15T22:29:41.786Z,61.30
2018-02-15T22:32:08.762Z,62.10
2018-02-15T22:34:35.746Z,61.20
2018-02-15T22:37:02.725Z,61.20
2018-02-15T22:39:29.705Z,61.20
2018-02-15T22:41:56.685Z,61.20
2018-02-15T22:44:24.433Z,61.20
2018-02-15T22:46:51.410Z,61.20
2018-02-15T22:49:18.394Z,61.20
2018-02-15T22:51:45.379Z,61.20
2018-02-15T22:54:13.129Z,61.20
2018-02-15T22:56:40.134Z,61.20
2018-02-15T22:59:07.094Z,61.20
2018-02-15T23:01:34.078Z,61.20
2018-02-15T23:04:01.826Z,61.20
2018-02-15T23:06:28.815Z,61.20
2018-02-15T23:08:55.801Z,61.20
2018-02-15T23:11:36.352Z,61.20
2018-02-15T23:14:03.334Z,61.20
2018-02-15T23:16:30.318Z,61.30
2018-02-15T23:18:57.303Z,61.30
2018-02-15T23:21:24.302Z,61.30
2018-02-15T23:23:51.287Z,61.30
2018-02-15T23:26:18.269Z,61.30
2018-02-15T23:28:45.251Z,61.30
2018-02-15T23:31:12.234Z,61.30
2018-02-15T23:33:39.219Z,61.30
2018-02-15T23:36:06.200Z,61.30
2018-02-15T23:38:33.178Z,61.40
2018-02-15T23:41:00.922Z,61.30
2018-02-15T23:43:27.906Z,61.30
2018-02-15T23:45:54.886Z,61.30
2018-02-15T23:48:21.872Z,61.30
2018-02-15T23:50:48.854Z,61.30
2018-02-15T23:53:16.615Z,61.40
2018-02-15T23:55:43.594Z,61.40
2018-02-15T23:58:10.591Z,61.30
